createdAt,value
2019-04-23T00:00:17.070Z,14.16
2019-04-23T00:02:19.732Z,14.11
2019-04-23T00:03:12.893Z,14.05
2019-04-23T00:04:19.260Z,14.09
2019-04-23T00:05:17.253Z,14.13
2019-04-23T00:06:18.904Z,14.13
2019-04-23T00:07:31.133Z,14.12
2019-04-23T00:08:23.233Z,14.16
2019-04-23T00:09:20.481Z,14.11
2019-04-23T00:10:19.437Z,14.08
2019-04-23T00:11:22.119Z,14.04
2019-04-23T00:12:26.479Z,14.02
2019-04-23T00:13:21.511Z,14.09
2019-04-23T00:15:30.831Z,14.09
2019-04-23T00:16:23.709Z,14.08
2019-04-23T00:17:22.968Z,14.04
2019-04-23T00:18:22.237Z,14.01
2019-04-23T00:19:18.921Z,14.01
2019-04-23T00:20:16.785Z,13.99
2019-04-23T00:21:24.794Z,13.98
2019-04-23T00:22:19.979Z,14.01
2019-04-23T00:23:34.969Z,13.91
2019-04-23T00:24:44.233Z,13.94
2019-04-23T00:25:33.141Z,13.87
2019-04-23T00:26:24.141Z,13.91
2019-04-23T00:28:22.987Z,13.79
2019-04-23T00:29:19.212Z,13.76
2019-04-23T00:30:18.639Z,13.81
2019-04-23T00:31:18.521Z,13.83
2019-04-23T00:32:23.731Z,13.84
2019-04-23T00:33:21.754Z,13.80
2019-04-23T00:34:21.200Z,13.79
2019-04-23T00:35:14.881Z,13.81
2019-04-23T00:36:23.028Z,13.71
2019-04-23T00:37:33.230Z,13.75
2019-04-23T00:38:18.372Z,13.71
2019-04-23T00:39:15.296Z,13.75
2019-04-23T00:40:20.287Z,13.72
2019-04-23T00:41:15.932Z,13.63
2019-04-23T00:42:22.095Z,13.71
2019-04-23T00:44:22.861Z,13.51
2019-04-23T00:45:16.662Z,13.59
2019-04-23T00:46:15.488Z,13.53
2019-04-23T00:47:23.649Z,13.61
2019-04-23T00:48:19.677Z,13.57
2019-04-23T00:49:22.647Z,13.55
2019-04-23T00:50:21.379Z,13.46
2019-04-23T00:51:16.739Z,13.57
2019-04-23T00:52:24.341Z,13.43
2019-04-23T00:53:18.890Z,13.47
2019-04-23T00:54:17.859Z,13.47
2019-04-23T00:55:14.758Z,13.48
2019-04-23T00:56:34.047Z,13.46
2019-04-23T00:58:22.161Z,13.35
2019-04-23T00:59:12.210Z,13.32
2019-04-23T01:01:18.604Z,13.36
2019-04-23T01:02:18.352Z,13.38
2019-04-23T01:03:17.229Z,13.35
2019-04-23T01:04:22.858Z,13.43
2019-04-23T01:05:18.364Z,13.36
2019-04-23T01:06:19.393Z,13.36
2019-04-23T01:07:22.878Z,13.41
2019-04-23T01:08:18.595Z,13.32
2019-04-23T01:09:14.254Z,13.27
2019-04-23T01:10:25.528Z,13.24
2019-04-23T01:11:16.702Z,13.19
2019-04-23T01:12:25.645Z,13.17
2019-04-23T01:13:28.745Z,13.29
2019-04-23T01:15:21.318Z,13.12
2019-04-23T01:16:19.583Z,13.21
2019-04-23T01:17:30.214Z,13.22
2019-04-23T01:18:18.884Z,13.13
2019-04-23T01:19:20.637Z,13.14
2019-04-23T01:20:14.234Z,13.13
2019-04-23T01:20:55.906Z,13.07
2019-04-23T01:21:55.916Z,13.09
2019-04-23T01:22:57.085Z,13.10
2019-04-23T01:24:01.609Z,13.12
2019-04-23T01:25:02.955Z,13.10
2019-04-23T01:26:13.301Z,13.06
2019-04-23T01:27:32.511Z,13.04
2019-04-23T01:28:23.119Z,13.03
2019-04-23T01:29:22.248Z,13.04
2019-04-23T01:30:19.831Z,12.94
2019-04-23T01:31:20.073Z,12.98
2019-04-23T01:32:20.955Z,12.92
2019-04-23T01:33:27.068Z,12.84
2019-04-23T01:34:25.777Z,12.91
2019-04-23T01:35:17.726Z,12.88
2019-04-23T01:36:25.613Z,12.87
2019-04-23T01:37:26.857Z,12.88
2019-04-23T01:38:31.070Z,12.84
2019-04-23T01:39:28.014Z,12.79
2019-04-23T01:40:26.860Z,12.76
2019-04-23T01:41:20.533Z,12.74
2019-04-23T01:42:34.032Z,12.71
2019-04-23T01:43:22.920Z,12.70
2019-04-23T01:44:33.722Z,12.66
2019-04-23T01:46:25.389Z,12.69
2019-04-23T01:47:24.133Z,12.70
2019-04-23T01:48:18.207Z,12.66
2019-04-23T01:49:31.236Z,12.67
2019-04-23T01:51:27.817Z,12.62
2019-04-23T01:52:24.944Z,12.63
2019-04-23T01:53:27.310Z,12.55
2019-04-23T01:54:26.161Z,12.52
2019-04-23T01:55:29.330Z,12.63
2019-04-23T01:56:33.864Z,12.54
2019-04-23T01:57:23.310Z,12.59
2019-04-23T01:58:31.887Z,12.61
2019-04-23T01:59:24.690Z,12.62
2019-04-23T02:00:25.593Z,12.62
2019-04-23T02:01:25.783Z,12.56
2019-04-23T02:02:29.317Z,12.61
2019-04-23T02:03:21.514Z,12.55
2019-04-23T02:04:22.908Z,12.49
2019-04-23T02:05:38.576Z,12.49
2019-04-23T02:06:20.349Z,12.46
2019-04-23T02:07:33.045Z,12.44
2019-04-23T02:08:20.704Z,12.44
2019-04-23T02:09:28.904Z,12.49
2019-04-23T02:10:29.793Z,12.44
2019-04-23T02:12:25.840Z,12.37
2019-04-23T02:13:23.838Z,12.46
2019-04-23T02:14:20.835Z,12.48
2019-04-23T02:15:26.494Z,12.49
2019-04-23T02:16:25.905Z,12.44
2019-04-23T02:17:24.932Z,12.46
2019-04-23T02:18:23.496Z,12.46
2019-04-23T02:19:23.567Z,12.36
2019-04-23T02:21:32.582Z,12.46
2019-04-23T02:22:28.483Z,12.44
2019-04-23T02:23:26.287Z,12.38
2019-04-23T02:24:20.364Z,12.44
2019-04-23T02:25:31.749Z,12.43
2019-04-23T02:26:27.745Z,12.37
2019-04-23T02:27:29.975Z,12.38
2019-04-23T02:28:25.757Z,12.37
2019-04-23T02:29:39.877Z,12.34
2019-04-23T02:31:48.991Z,12.44
2019-04-23T02:32:38.195Z,12.37
2019-04-23T02:33:39.241Z,12.34
2019-04-23T02:36:22.750Z,12.34
2019-04-23T02:37:36.003Z,12.34
2019-04-23T02:39:29.301Z,12.34
2019-04-23T02:40:39.649Z,12.37
2019-04-23T02:41:34.634Z,12.29
2019-04-23T02:43:50.993Z,12.38
2019-04-23T02:44:24.024Z,12.33
2019-04-23T02:45:36.566Z,12.38
2019-04-23T02:46:17.539Z,12.34
2019-04-23T02:47:36.940Z,12.36
2019-04-23T02:48:45.873Z,12.26
2019-04-23T02:49:35.995Z,12.31
2019-04-23T02:51:37.188Z,12.34
2019-04-23T02:52:32.005Z,12.34
2019-04-23T02:53:42.656Z,12.34
2019-04-23T02:55:39.366Z,12.36
2019-04-23T02:57:29.085Z,12.36
2019-04-23T02:59:58.624Z,12.31
2019-04-23T03:00:55.320Z,12.36
2019-04-23T03:04:36.622Z,12.38
2019-04-23T03:05:25.033Z,12.43
2019-04-23T03:06:36.748Z,12.38
2019-04-23T03:10:31.327Z,12.38
2019-04-23T03:11:32.140Z,12.36
2019-04-23T03:12:31.445Z,12.44
2019-04-23T03:13:44.228Z,12.30
2019-04-23T03:15:41.759Z,12.46
2019-04-23T03:17:33.053Z,12.38
2019-04-23T03:18:44.104Z,12.41
2019-04-23T03:20:37.927Z,12.38
2019-04-23T03:21:31.304Z,12.37
2019-04-23T03:22:25.143Z,12.38
2019-04-23T03:23:32.102Z,12.34
2019-04-23T03:24:38.877Z,12.36
2019-04-23T03:25:38.185Z,12.31
2019-04-23T03:26:36.850Z,12.26
2019-04-23T03:27:31.991Z,12.34
2019-04-23T03:28:37.862Z,12.30
2019-04-23T03:29:40.897Z,12.29
2019-04-23T03:32:45.370Z,12.29
2019-04-23T03:36:13.682Z,12.21
2019-04-23T03:37:34.020Z,12.22
2019-04-23T03:38:37.534Z,12.25
2019-04-23T03:39:40.182Z,12.30
2019-04-23T03:40:21.442Z,12.21
2019-04-23T03:41:27.890Z,12.23
2019-04-23T03:42:38.671Z,12.21
2019-04-23T03:43:33.682Z,12.16
2019-04-23T03:44:47.884Z,12.16
2019-04-23T03:45:37.078Z,12.12
2019-04-23T03:46:34.048Z,12.07
2019-04-23T03:48:36.406Z,12.07
2019-04-23T03:49:30.061Z,12.04
2019-04-23T03:52:42.315Z,12.05
2019-04-23T03:54:39.913Z,12.07
2019-04-23T03:55:41.392Z,12.05
2019-04-23T03:56:58.791Z,12.03
2019-04-23T03:57:30.745Z,11.88
2019-04-23T04:01:46.337Z,12.04
2019-04-23T04:02:40.398Z,11.94
2019-04-23T04:03:50.261Z,12.01
2019-04-23T04:04:32.818Z,11.85
2019-04-23T04:06:33.748Z,11.96
2019-04-23T04:07:35.815Z,11.98
2019-04-23T04:08:29.133Z,11.90
2019-04-23T04:10:35.674Z,11.88
2019-04-23T04:12:36.079Z,11.84
2019-04-23T04:13:30.872Z,11.97
2019-04-23T04:14:49.229Z,11.90
2019-04-23T04:15:53.408Z,11.88
2019-04-23T04:16:28.977Z,11.90
2019-04-23T04:17:32.607Z,11.88
2019-04-23T04:20:33.021Z,11.96
2019-04-23T04:23:33.802Z,11.93
2019-04-23T04:26:34.915Z,11.96
2019-04-23T04:27:36.469Z,11.97
2019-04-23T04:28:48.617Z,11.96
2019-04-23T04:29:40.825Z,11.82
2019-04-23T04:30:43.507Z,11.88
2019-04-23T04:31:44.734Z,11.87
2019-04-23T04:32:33.541Z,11.84
2019-04-23T04:33:44.143Z,11.81
2019-04-23T04:35:39.222Z,11.77
2019-04-23T04:36:32.669Z,11.87
2019-04-23T04:37:44.166Z,11.84
2019-04-23T04:38:40.141Z,11.85
2019-04-23T04:39:34.355Z,11.82
2019-04-23T04:40:42.425Z,11.84
2019-04-23T04:42:30.444Z,11.87
2019-04-23T04:45:43.208Z,11.84
2019-04-23T04:46:39.406Z,11.90
2019-04-23T04:48:35.357Z,11.88
2019-04-23T04:49:36.530Z,11.90
2019-04-23T04:51:37.824Z,11.90
2019-04-23T04:52:44.308Z,11.97
2019-04-23T04:55:28.355Z,11.87
2019-04-23T04:57:36.740Z,11.96
2019-04-23T04:58:32.277Z,11.96
2019-04-23T04:59:37.780Z,12.04
2019-04-23T05:01:54.202Z,12.07
2019-04-23T05:04:37.447Z,12.04
2019-04-23T05:06:38.922Z,12.07
2019-04-23T05:08:28.890Z,12.16
2019-04-23T05:10:43.345Z,12.16
2019-04-23T05:11:40.927Z,12.22
2019-04-23T05:12:34.947Z,12.21
2019-04-23T05:13:41.374Z,12.23
2019-04-23T05:14:35.430Z,12.15
2019-04-23T05:15:25.498Z,12.29
2019-04-23T05:16:29.294Z,12.25
2019-04-23T05:17:36.023Z,12.25
2019-04-23T05:18:28.749Z,12.23
2019-04-23T05:19:43.950Z,12.22
2019-04-23T05:20:28.479Z,12.23
2019-04-23T05:21:37.658Z,12.23
2019-04-23T05:22:30.887Z,12.25
2019-04-23T05:23:27.648Z,12.25
2019-04-23T05:25:28.081Z,12.34
2019-04-23T05:26:25.166Z,12.44
2019-04-23T05:27:34.539Z,12.48
2019-04-23T05:28:51.982Z,12.48
2019-04-23T05:29:22.945Z,12.54
2019-04-23T05:31:23.666Z,12.62
2019-04-23T05:32:21.925Z,12.54
2019-04-23T05:33:25.435Z,12.61
2019-04-23T05:34:24.404Z,12.51
2019-04-23T05:35:33.718Z,12.61
2019-04-23T05:36:40.137Z,12.59
2019-04-23T05:37:40.513Z,12.55
2019-04-23T05:38:37.089Z,12.59
2019-04-23T05:42:26.054Z,12.80
2019-04-23T05:43:30.324Z,12.70
2019-04-23T05:44:32.116Z,12.73
2019-04-23T05:45:24.846Z,12.80
2019-04-23T05:46:29.851Z,12.80
2019-04-23T05:47:29.280Z,12.91
2019-04-23T05:48:23.433Z,12.87
2019-04-23T05:49:27.967Z,12.98
2019-04-23T05:50:38.768Z,12.98
2019-04-23T05:51:28.229Z,13.12
2019-04-23T05:52:24.472Z,13.17
2019-04-23T05:53:27.264Z,13.24
2019-04-23T05:54:27.767Z,13.31
2019-04-23T05:55:18.755Z,13.28
2019-04-23T05:56:20.564Z,13.28
2019-04-23T05:57:20.655Z,13.39
2019-04-23T05:58:30.086Z,13.38
2019-04-23T05:59:26.195Z,13.39
2019-04-23T06:00:28.748Z,13.46
2019-04-23T06:02:26.248Z,13.54
2019-04-23T06:03:24.778Z,13.50
2019-04-23T06:04:32.700Z,13.54
2019-04-23T06:05:28.560Z,13.54
2019-04-23T06:06:33.148Z,13.66
2019-04-23T06:08:40.930Z,13.76
2019-04-23T06:09:28.806Z,13.93
2019-04-23T06:10:27.608Z,13.94
2019-04-23T06:11:28.555Z,14.02
2019-04-23T06:12:21.378Z,14.09
2019-04-23T06:13:27.651Z,14.21
2019-04-23T06:14:25.008Z,14.26
2019-04-23T06:15:26.815Z,14.27
2019-04-23T06:16:31.342Z,14.38
2019-04-23T06:17:21.588Z,14.44
2019-04-23T06:19:39.974Z,14.44
2019-04-23T06:20:28.798Z,14.39
2019-04-23T06:21:23.982Z,14.41
2019-04-23T06:22:33.161Z,14.31
2019-04-23T06:23:33.098Z,14.41
2019-04-23T06:24:29.256Z,14.39
2019-04-23T06:25:42.183Z,14.54
2019-04-23T06:26:38.007Z,14.52
2019-04-23T06:27:28.994Z,14.64
2019-04-23T06:28:44.036Z,14.67
2019-04-23T06:29:25.753Z,14.83
2019-04-23T06:30:26.541Z,14.86
2019-04-23T06:32:25.842Z,14.95
2019-04-23T06:33:27.588Z,15.04
2019-04-23T06:35:23.799Z,15.04
2019-04-23T06:36:27.728Z,15.07
2019-04-23T06:37:28.379Z,15.07
2019-04-23T06:39:28.519Z,15.30
2019-04-23T06:40:31.570Z,15.27
2019-04-23T06:41:30.900Z,15.19
2019-04-23T06:42:23.165Z,15.27
2019-04-23T06:43:24.064Z,15.31
2019-04-23T06:44:27.049Z,15.37
2019-04-23T06:45:22.434Z,15.49
2019-04-23T06:46:29.011Z,15.49
2019-04-23T06:47:23.447Z,15.56
2019-04-23T06:49:35.509Z,15.60
2019-04-23T06:50:32.961Z,15.66
2019-04-23T06:51:31.098Z,15.81
2019-04-23T06:52:21.570Z,16.03
2019-04-23T06:53:20.949Z,15.95
2019-04-23T06:54:24.404Z,16.01
2019-04-23T06:55:28.806Z,16.03
2019-04-23T06:56:26.511Z,16.03
2019-04-23T06:57:23.813Z,16.17
2019-04-23T06:58:32.116Z,16.08
2019-04-23T06:59:24.615Z,16.18
2019-04-23T07:00:27.885Z,16.13
2019-04-23T07:01:28.376Z,16.16
2019-04-23T07:03:31.486Z,16.29
2019-04-23T07:04:33.171Z,16.41
2019-04-23T07:05:23.833Z,16.63
2019-04-23T07:07:43.091Z,16.60
2019-04-23T07:08:34.668Z,16.78
2019-04-23T07:09:17.506Z,16.87
2019-04-23T07:10:26.660Z,16.85
2019-04-23T07:11:27.031Z,16.65
2019-04-23T07:12:33.780Z,16.63
2019-04-23T07:13:34.616Z,16.69
2019-04-23T07:14:30.785Z,16.75
2019-04-23T07:15:40.754Z,16.87
2019-04-23T07:16:21.624Z,16.87
2019-04-23T07:17:34.978Z,16.88
2019-04-23T07:18:24.534Z,17.00
2019-04-23T07:20:31.998Z,16.98
2019-04-23T07:22:23.561Z,17.22
2019-04-23T07:23:30.915Z,17.15
2019-04-23T07:24:26.363Z,17.17
2019-04-23T07:25:39.042Z,17.28
2019-04-23T07:26:34.917Z,17.30
2019-04-23T07:27:27.123Z,17.20
2019-04-23T07:28:27.526Z,17.36
2019-04-23T07:29:25.810Z,17.49
2019-04-23T07:30:29.487Z,17.65
2019-04-23T07:31:26.522Z,17.63
2019-04-23T07:32:23.721Z,17.65
2019-04-23T07:33:29.888Z,17.79
2019-04-23T07:34:24.422Z,17.86
2019-04-23T07:35:28.280Z,18.02
2019-04-23T07:36:29.514Z,18.25
2019-04-23T07:37:23.021Z,18.25
2019-04-23T07:38:33.335Z,18.23
2019-04-23T07:39:27.336Z,18.21
2019-04-23T07:41:36.128Z,18.28
2019-04-23T07:43:23.072Z,18.21
2019-04-23T07:44:38.698Z,18.23
2019-04-23T07:45:32.994Z,18.31
2019-04-23T07:46:38.328Z,18.25
2019-04-23T07:48:16.684Z,18.21
2019-04-23T07:49:23.429Z,18.19
2019-04-23T07:51:29.557Z,18.19
2019-04-23T07:53:23.351Z,18.46
2019-04-23T07:54:33.799Z,18.49
2019-04-23T07:55:37.699Z,18.64
2019-04-23T07:56:28.017Z,18.78
2019-04-23T07:57:32.458Z,18.99
2019-04-23T07:58:29.033Z,19.02
2019-04-23T07:59:37.160Z,19.01
2019-04-23T08:00:36.724Z,19.23
2019-04-23T08:01:39.161Z,19.31
2019-04-23T08:02:33.531Z,19.24
2019-04-23T08:04:29.593Z,19.25
2019-04-23T08:05:31.625Z,19.24
2019-04-23T08:06:21.555Z,19.46
2019-04-23T08:07:28.266Z,19.45
2019-04-23T08:08:25.814Z,19.25
2019-04-23T08:09:34.434Z,19.20
2019-04-23T08:10:29.821Z,19.24
2019-04-23T08:11:33.134Z,19.45
2019-04-23T08:12:31.649Z,19.38
2019-04-23T08:13:33.685Z,19.38
2019-04-23T08:14:22.383Z,19.61
2019-04-23T08:15:28.339Z,19.62
2019-04-23T08:16:33.979Z,19.55
2019-04-23T08:18:32.112Z,19.24
2019-04-23T08:19:37.285Z,19.31
2019-04-23T08:20:30.707Z,19.28
2019-04-23T08:21:25.766Z,19.27
2019-04-23T08:22:35.641Z,19.42
2019-04-23T08:24:36.378Z,19.61
2019-04-23T08:25:26.428Z,19.57
2019-04-23T08:26:34.854Z,19.64
2019-04-23T08:27:22.418Z,19.68
2019-04-23T08:28:34.066Z,19.79
2019-04-23T08:29:31.028Z,20.02
2019-04-23T08:30:25.557Z,19.87
2019-04-23T08:31:32.284Z,19.83
2019-04-23T08:32:18.944Z,20.16
2019-04-23T08:33:24.793Z,20.17
2019-04-23T08:35:19.453Z,20.33
2019-04-23T08:36:27.267Z,20.38
2019-04-23T08:37:54.167Z,20.60
2019-04-23T08:39:35.418Z,20.90
2019-04-23T08:40:28.481Z,21.08
2019-04-23T08:41:33.864Z,21.15
2019-04-23T08:43:38.267Z,21.12
2019-04-23T08:44:46.143Z,21.11
2019-04-23T08:45:28.612Z,21.22
2019-04-23T08:46:33.013Z,21.56
2019-04-23T08:47:27.045Z,21.59
2019-04-23T08:48:27.483Z,21.67
2019-04-23T08:49:36.126Z,21.56
2019-04-23T08:50:27.414Z,21.40
2019-04-23T08:52:27.584Z,21.56
2019-04-23T08:54:45.947Z,21.51
2019-04-23T08:56:31.862Z,21.81
2019-04-23T08:57:30.465Z,21.73
2019-04-23T09:00:35.455Z,21.37
2019-04-23T09:01:37.042Z,21.22
2019-04-23T09:02:34.116Z,21.37
2019-04-23T09:04:36.212Z,21.89
2019-04-23T09:05:34.699Z,22.12
2019-04-23T09:06:47.215Z,22.36
2019-04-23T09:08:27.861Z,22.56
2019-04-23T09:09:34.782Z,22.64
2019-04-23T09:10:42.312Z,22.72
2019-04-23T09:12:28.659Z,22.46
2019-04-23T09:14:27.750Z,22.79
2019-04-23T09:15:36.097Z,22.99
2019-04-23T09:16:28.695Z,23.12
2019-04-23T09:18:26.218Z,23.07
2019-04-23T09:19:34.734Z,23.11
2019-04-23T09:21:27.017Z,22.74
2019-04-23T09:22:28.269Z,22.54
2019-04-23T09:23:35.100Z,22.79
2019-04-23T09:24:25.761Z,22.72
2019-04-23T09:25:34.705Z,22.51
2019-04-23T09:26:26.169Z,22.31
2019-04-23T09:27:42.070Z,22.30
2019-04-23T09:28:35.139Z,22.48
2019-04-23T09:29:40.743Z,22.63
2019-04-23T09:30:28.608Z,22.57
2019-04-23T09:31:55.562Z,22.72
2019-04-23T09:32:26.643Z,22.64
2019-04-23T09:33:36.142Z,23.01
2019-04-23T09:34:31.305Z,23.29
2019-04-23T09:36:35.387Z,24.15
2019-04-23T09:38:28.170Z,24.24
2019-04-23T09:39:32.638Z,23.89
2019-04-23T09:41:27.407Z,23.96
2019-04-23T09:42:32.318Z,23.72
2019-04-23T09:43:27.725Z,23.64
2019-04-23T09:45:37.004Z,23.71
2019-04-23T09:47:34.698Z,23.78
2019-04-23T09:48:29.911Z,23.87
2019-04-23T09:50:34.464Z,24.41
2019-04-23T09:51:34.261Z,24.59
2019-04-23T09:52:27.608Z,25.11
2019-04-23T09:54:32.537Z,25.49
2019-04-23T09:55:35.800Z,25.66
2019-04-23T09:56:30.228Z,25.83
2019-04-23T09:57:26.489Z,25.90
2019-04-23T09:58:21.927Z,25.97
2019-04-23T09:59:31.225Z,26.19
2019-04-23T10:00:40.677Z,26.17
2019-04-23T10:02:21.613Z,25.53
2019-04-23T10:03:16.163Z,25.83
2019-04-23T10:04:17.077Z,26.24
2019-04-23T10:05:13.836Z,26.41
2019-04-23T10:06:09.681Z,26.46
2019-04-23T10:07:18.026Z,26.64
2019-04-23T10:08:11.670Z,26.75
2019-04-23T10:09:05.444Z,26.87
2019-04-23T10:10:01.781Z,26.83
2019-04-23T10:11:02.906Z,27.08
2019-04-23T10:12:03.090Z,27.20
2019-04-23T10:13:02.282Z,27.02
2019-04-23T10:14:02.890Z,26.78
2019-04-23T10:15:09.805Z,26.79
2019-04-23T10:16:02.313Z,27.15
2019-04-23T10:17:02.168Z,27.46
2019-04-23T10:18:02.496Z,27.30
2019-04-23T10:19:01.963Z,27.62
2019-04-23T10:20:02.703Z,27.77
2019-04-23T10:21:03.316Z,27.61
2019-04-23T10:22:02.029Z,27.18
2019-04-23T10:23:02.342Z,27.30
2019-04-23T10:24:03.372Z,27.48
2019-04-23T10:25:03.444Z,27.74
2019-04-23T10:26:02.072Z,27.65
2019-04-23T10:27:02.085Z,27.90
2019-04-23T10:28:06.708Z,28.02
2019-04-23T10:29:02.380Z,28.23
2019-04-23T10:30:03.609Z,28.61
2019-04-23T10:31:02.815Z,28.83
2019-04-23T10:32:03.762Z,28.57
2019-04-23T10:33:03.326Z,28.55
2019-04-23T10:34:02.203Z,28.64
2019-04-23T10:35:14.766Z,29.00
2019-04-23T10:36:08.482Z,29.23
2019-04-23T10:37:02.261Z,29.73
2019-04-23T10:38:06.339Z,29.81
2019-04-23T10:39:08.638Z,30.08
2019-04-23T10:40:05.772Z,30.21
2019-04-23T10:41:02.336Z,29.91
2019-04-23T10:42:03.418Z,29.64
2019-04-23T10:43:03.914Z,29.64
2019-04-23T10:44:02.844Z,29.79
2019-04-23T10:45:14.751Z,30.13
2019-04-23T10:46:23.179Z,30.03
2019-04-23T10:47:30.151Z,30.18
2019-04-23T10:48:32.747Z,29.94
2019-04-23T10:50:37.543Z,30.03
2019-04-23T10:51:36.245Z,29.92
2019-04-23T10:53:34.953Z,29.23
2019-04-23T10:54:37.678Z,29.12
2019-04-23T10:55:35.324Z,29.26
2019-04-23T10:56:34.684Z,28.76
2019-04-23T10:57:36.124Z,28.77
2019-04-23T10:58:30.329Z,28.95
2019-04-23T10:59:20.038Z,29.48
2019-04-23T11:00:30.281Z,29.58
2019-04-23T11:01:32.076Z,29.60
2019-04-23T11:02:40.244Z,30.04
2019-04-23T11:05:46.205Z,31.04
2019-04-23T11:06:44.258Z,31.34
2019-04-23T11:07:30.934Z,31.32
2019-04-23T11:08:30.980Z,31.38
2019-04-23T11:09:47.028Z,31.54
2019-04-23T11:10:29.588Z,31.28
2019-04-23T11:11:40.226Z,30.75
2019-04-23T11:13:47.883Z,31.18
2019-04-23T11:14:34.339Z,31.20
2019-04-23T11:15:58.917Z,31.52
2019-04-23T11:16:52.265Z,31.40
2019-04-23T11:17:39.907Z,31.41
2019-04-23T11:18:48.920Z,31.34
2019-04-23T11:19:39.981Z,29.91
2019-04-23T11:21:32.814Z,29.99
2019-04-23T11:22:42.598Z,29.71
2019-04-23T11:23:34.543Z,30.07
2019-04-23T11:26:35.182Z,30.22
2019-04-23T11:27:36.251Z,30.32
2019-04-23T11:28:32.989Z,30.44
2019-04-23T11:29:34.240Z,30.53
2019-04-23T11:30:36.121Z,30.54
2019-04-23T11:31:35.157Z,29.97
2019-04-23T11:32:46.756Z,29.97
2019-04-23T11:33:39.232Z,30.37
2019-04-23T11:34:56.764Z,30.60
2019-04-23T11:35:39.958Z,30.66
2019-04-23T11:37:45.688Z,30.54
2019-04-23T11:39:43.128Z,29.85
2019-04-23T11:42:37.954Z,30.91
2019-04-23T11:44:36.776Z,31.41
2019-04-23T11:45:41.735Z,31.76
2019-04-23T11:48:04.994Z,31.85
2019-04-23T11:48:46.163Z,32.14
2019-04-23T11:51:07.835Z,31.72
2019-04-23T11:51:10.422Z,32.81
2019-04-23T11:51:57.976Z,33.14
2019-04-23T11:52:41.443Z,33.47
2019-04-23T11:53:42.603Z,33.75
2019-04-23T11:54:32.231Z,33.72
2019-04-23T11:57:03.421Z,33.50
2019-04-23T11:58:37.590Z,32.02
2019-04-23T11:59:36.098Z,31.91
2019-04-23T12:00:44.714Z,31.32
2019-04-23T12:01:47.747Z,31.18
2019-04-23T12:02:38.916Z,31.78
2019-04-23T12:03:39.494Z,32.61
2019-04-23T12:04:54.240Z,32.96
2019-04-23T12:06:19.058Z,32.22
2019-04-23T12:08:00.518Z,32.40
2019-04-23T12:10:43.012Z,32.31
2019-04-23T12:13:37.900Z,31.98
2019-04-23T12:15:32.060Z,31.90
2019-04-23T12:16:38.373Z,31.31
2019-04-23T12:17:48.969Z,30.61
2019-04-23T12:18:58.162Z,30.79
2019-04-23T12:19:52.907Z,31.72
2019-04-23T12:21:38.084Z,33.49
2019-04-23T12:23:40.579Z,34.46
2019-04-23T12:24:58.228Z,34.84
2019-04-23T12:25:36.613Z,34.83
2019-04-23T12:26:39.079Z,35.03
2019-04-23T12:27:31.460Z,34.84
2019-04-23T12:28:40.147Z,34.40
2019-04-23T12:29:46.219Z,34.69
2019-04-23T12:31:47.937Z,34.37
2019-04-23T12:33:37.181Z,33.60
2019-04-23T12:35:27.785Z,32.24
2019-04-23T12:36:37.733Z,32.05
2019-04-23T12:37:35.080Z,32.24
2019-04-23T12:38:32.998Z,32.71
2019-04-23T12:39:39.749Z,32.63
2019-04-23T12:40:43.181Z,32.65
2019-04-23T12:41:35.860Z,32.93
2019-04-23T12:42:53.956Z,32.81
2019-04-23T12:43:28.811Z,32.71
2019-04-23T12:44:40.534Z,32.83
2019-04-23T12:46:41.478Z,32.58
2019-04-23T12:49:57.810Z,33.21
2019-04-23T12:50:44.789Z,33.50
2019-04-23T12:51:41.840Z,33.72
2019-04-23T12:52:40.627Z,33.94
2019-04-23T12:53:43.253Z,34.64
2019-04-23T12:54:51.354Z,34.31
2019-04-23T12:55:36.349Z,34.61
2019-04-23T12:56:41.862Z,33.81
2019-04-23T12:57:35.740Z,33.82
2019-04-23T12:58:41.527Z,33.59
2019-04-23T12:59:41.785Z,33.92
2019-04-23T13:00:32.265Z,33.99
2019-04-23T13:01:42.811Z,33.66
2019-04-23T13:02:40.144Z,33.74
2019-04-23T13:04:32.264Z,32.88
2019-04-23T13:06:32.576Z,32.31
2019-04-23T13:07:38.894Z,31.65
2019-04-23T13:08:39.993Z,31.57
2019-04-23T13:11:34.910Z,31.92
2019-04-23T13:12:54.134Z,32.07
2019-04-23T13:13:42.567Z,31.40
2019-04-23T13:14:43.711Z,31.31
2019-04-23T13:16:46.145Z,31.38
2019-04-23T13:17:50.604Z,32.16
2019-04-23T13:20:33.058Z,30.19
2019-04-23T13:21:53.508Z,30.03
2019-04-23T13:22:39.769Z,29.58
2019-04-23T13:24:33.155Z,30.28
2019-04-23T13:26:31.432Z,30.04
2019-04-23T13:27:44.009Z,29.41
2019-04-23T13:28:45.229Z,29.55
2019-04-23T13:29:43.016Z,30.03
2019-04-23T13:30:39.012Z,29.99
2019-04-23T13:31:30.177Z,29.91
2019-04-23T13:32:36.012Z,30.00
2019-04-23T13:33:40.933Z,30.03
2019-04-23T13:34:41.450Z,30.04
2019-04-23T13:35:45.520Z,30.07
2019-04-23T13:36:39.502Z,30.60
2019-04-23T13:37:46.361Z,31.09
2019-04-23T13:39:38.954Z,30.94
2019-04-23T13:40:39.358Z,30.49
2019-04-23T13:41:31.698Z,29.62
2019-04-23T13:42:43.046Z,29.48
2019-04-23T13:43:40.403Z,29.84
2019-04-23T13:44:34.023Z,29.64
2019-04-23T13:45:56.478Z,29.23
2019-04-23T13:46:35.566Z,28.85
2019-04-23T13:47:53.409Z,28.03
2019-04-23T13:49:35.028Z,27.65
2019-04-23T13:51:32.005Z,27.90
2019-04-23T13:53:50.103Z,28.51
2019-04-23T13:54:58.485Z,28.14
2019-04-23T13:55:26.664Z,28.35
2019-04-23T13:57:03.997Z,28.85
2019-04-23T13:57:57.419Z,28.50
2019-04-23T14:00:44.715Z,29.62
2019-04-23T14:01:35.351Z,29.49
2019-04-23T14:04:44.693Z,29.81
2019-04-23T14:05:33.303Z,30.13
2019-04-23T14:06:36.494Z,30.57
2019-04-23T14:07:41.871Z,30.11
2019-04-23T14:09:54.503Z,29.92
2019-04-23T14:10:46.525Z,29.92
2019-04-23T14:12:42.012Z,30.30
2019-04-23T14:13:45.602Z,30.60
2019-04-23T14:14:41.697Z,30.61
2019-04-23T14:16:48.763Z,31.03
2019-04-23T14:17:49.010Z,31.23
2019-04-23T14:19:32.044Z,30.03
2019-04-23T14:20:36.840Z,29.94
2019-04-23T14:21:35.438Z,30.26
2019-04-23T14:23:00.094Z,30.67
2019-04-23T14:23:44.200Z,31.01
2019-04-23T14:24:46.199Z,30.88
2019-04-23T14:25:43.220Z,30.73
2019-04-23T14:27:43.007Z,30.23
2019-04-23T14:28:43.607Z,30.11
2019-04-23T14:29:42.751Z,29.66
2019-04-23T14:30:37.267Z,29.97
2019-04-23T14:31:43.285Z,29.49
2019-04-23T14:32:35.369Z,29.94
2019-04-23T14:34:39.881Z,30.06
2019-04-23T14:36:36.378Z,29.42
2019-04-23T14:37:45.757Z,29.48
2019-04-23T14:38:40.086Z,28.79
2019-04-23T14:41:31.919Z,29.26
2019-04-23T14:42:47.587Z,29.11
2019-04-23T14:43:40.671Z,29.14
2019-04-23T14:44:36.446Z,29.36
2019-04-23T14:45:58.101Z,29.25
2019-04-23T14:47:40.343Z,28.82
2019-04-23T14:48:42.088Z,28.92
2019-04-23T14:51:38.821Z,29.00
2019-04-23T14:52:38.784Z,28.61
2019-04-23T14:53:33.691Z,28.79
2019-04-23T14:55:19.920Z,28.33
2019-04-23T14:56:35.040Z,28.92
2019-04-23T14:57:49.774Z,29.55
2019-04-23T14:58:47.970Z,29.71
2019-04-23T14:59:29.186Z,30.01
2019-04-23T15:00:46.636Z,30.26
2019-04-23T15:01:35.118Z,30.40
2019-04-23T15:02:44.471Z,30.54
2019-04-23T15:03:40.372Z,30.25
2019-04-23T15:06:43.737Z,30.42
2019-04-23T15:07:34.389Z,30.45
2019-04-23T15:08:54.615Z,30.64
2019-04-23T15:09:50.534Z,30.59
2019-04-23T15:10:44.652Z,30.18
2019-04-23T15:11:36.835Z,29.82
2019-04-23T15:13:40.771Z,28.92
2019-04-23T15:14:49.004Z,27.61
2019-04-23T15:15:35.751Z,26.96
2019-04-23T15:16:39.663Z,26.38
2019-04-23T15:17:34.695Z,26.08
2019-04-23T15:18:44.519Z,26.01
2019-04-23T15:20:39.764Z,25.60
2019-04-23T15:22:48.100Z,25.86
2019-04-23T15:23:51.523Z,25.86
2019-04-23T15:27:44.694Z,25.54
2019-04-23T15:28:12.139Z,25.76
2019-04-23T15:29:24.607Z,25.83
2019-04-23T15:30:41.500Z,25.71
2019-04-23T15:31:40.483Z,25.31
2019-04-23T15:32:44.628Z,25.02
2019-04-23T15:33:48.984Z,25.11
2019-04-23T15:34:30.954Z,25.08
2019-04-23T15:36:04.766Z,25.17
2019-04-23T15:37:58.849Z,25.24
2019-04-23T15:38:34.020Z,25.23
2019-04-23T15:39:42.932Z,25.22
2019-04-23T15:40:32.908Z,24.99
2019-04-23T15:41:40.099Z,24.68
2019-04-23T15:43:43.533Z,24.61
2019-04-23T15:44:39.493Z,24.74
2019-04-23T15:45:41.892Z,24.92
2019-04-23T15:47:45.355Z,25.09
2019-04-23T15:49:01.122Z,24.79
2019-04-23T15:49:35.643Z,24.83
2019-04-23T15:50:40.164Z,24.84
2019-04-23T15:52:44.329Z,24.64
2019-04-23T15:53:30.842Z,24.59
2019-04-23T15:54:44.716Z,24.52
2019-04-23T15:55:33.892Z,24.30